createdAt,value
2023-07-01T00:02:25.777Z,81.40
2023-07-01T00:04:52.812Z,81.36
2023-07-01T00:07:19.726Z,81.49
2023-07-01T00:09:47.169Z,81.58
2023-07-01T00:12:14.076Z,81.37
2023-07-01T00:14:40.943Z,81.48
2023-07-01T00:17:10.848Z,81.66
2023-07-01T00:19:37.805Z,81.38
2023-07-01T00:22:05.505Z,81.49
2023-07-01T00:24:32.329Z,81.56
2023-07-01T00:26:59.337Z,81.34
2023-07-01T00:29:26.319Z,81.78
2023-07-01T00:31:53.291Z,81.79
2023-07-01T00:34:20.679Z,81.79
2023-07-01T00:36:47.909Z,81.52
2023-07-01T00:39:14.940Z,81.72
2023-07-01T00:41:41.818Z,81.45
2023-07-01T00:44:08.847Z,81.38
2023-07-01T00:46:35.819Z,81.57
2023-07-01T00:49:02.884Z,81.67
2023-07-01T00:51:30.192Z,81.75
2023-07-01T00:53:57.167Z,81.88
2023-07-01T00:56:25.136Z,81.48
2023-07-01T00:58:53.348Z,81.89
2023-07-01T01:01:24.805Z,81.59
2023-07-01T01:04:01.997Z,81.63
2023-07-01T01:06:54.854Z,81.85
2023-07-01T01:09:43.558Z,81.75
2023-07-01T01:12:12.855Z,81.79
2023-07-01T01:14:40.041Z,81.87
2023-07-01T01:17:12.225Z,81.59
2023-07-01T01:19:46.618Z,81.94
2023-07-01T01:22:17.113Z,81.79
2023-07-01T01:24:48.371Z,81.82
2023-07-01T01:27:19.684Z,81.75
2023-07-01T01:29:46.813Z,81.70
2023-07-01T01:32:13.738Z,81.78
2023-07-01T01:34:40.687Z,82.06
2023-07-01T01:37:15.973Z,81.93
2023-07-01T01:39:48.703Z,82.03
2023-07-01T01:42:23.505Z,81.88
2023-07-01T01:44:53.629Z,81.67
2023-07-01T01:47:22.494Z,81.96
2023-07-01T01:49:52.983Z,82.12
2023-07-01T01:52:19.946Z,81.80
2023-07-01T01:54:48.077Z,81.85
2023-07-01T01:57:15.745Z,81.89
2023-07-01T01:59:44.266Z,81.94
2023-07-01T02:02:11.550Z,82.02
2023-07-01T02:04:38.871Z,82.14
2023-07-01T02:07:06.428Z,81.97
2023-07-01T02:09:33.802Z,82.03
2023-07-01T02:12:00.670Z,81.96
2023-07-01T02:14:27.589Z,81.93
2023-07-01T02:16:55.806Z,82.13
2023-07-01T02:19:23.263Z,81.97
2023-07-01T02:21:50.276Z,82.15
2023-07-01T02:24:17.292Z,81.99
2023-07-01T02:26:46.342Z,82.12
2023-07-01T02:29:13.382Z,82.10
2023-07-01T02:31:40.304Z,82.10
2023-07-01T02:34:07.593Z,82.18
2023-07-01T02:36:34.534Z,82.15
2023-07-01T02:39:01.540Z,82.27
2023-07-01T02:41:28.407Z,82.38
2023-07-01T02:43:55.754Z,82.16
2023-07-01T02:46:22.716Z,82.29
2023-07-01T02:48:50.219Z,82.15
2023-07-01T02:51:18.094Z,82.47
2023-07-01T02:53:45.095Z,82.38
2023-07-01T02:56:12.192Z,82.19
2023-07-01T02:58:39.114Z,82.19
2023-07-01T03:01:06.405Z,82.28
2023-07-01T03:03:33.314Z,82.31
2023-07-01T03:06:00.392Z,82.21
2023-07-01T03:08:27.422Z,82.38
2023-07-01T03:10:54.402Z,82.25
2023-07-01T03:13:21.413Z,82.27
2023-07-01T03:15:48.415Z,82.38
2023-07-01T03:18:15.310Z,82.43
2023-07-01T03:20:42.288Z,82.25
2023-07-01T03:23:09.712Z,82.18
2023-07-01T03:25:37.245Z,82.03
2023-07-01T03:28:04.528Z,82.24
2023-07-01T03:30:32.345Z,82.05
2023-07-01T03:32:59.816Z,81.82
2023-07-01T03:35:26.986Z,81.62
2023-07-01T03:37:54.013Z,81.11
2023-07-01T03:40:21.128Z,80.97
2023-07-01T03:42:48.206Z,80.68
2023-07-01T03:45:15.139Z,80.54
2023-07-01T03:47:47.143Z,80.02
2023-07-01T03:50:14.310Z,79.77
2023-07-01T03:52:42.767Z,79.23
2023-07-01T03:55:15.524Z,78.67
2023-07-01T03:57:42.637Z,78.39
2023-07-01T04:00:18.989Z,78.11
2023-07-01T04:02:48.132Z,77.63
2023-07-01T04:05:15.607Z,77.13
2023-07-01T04:07:44.186Z,76.78
2023-07-01T04:10:11.934Z,76.21
2023-07-01T04:12:40.025Z,75.69
2023-07-01T04:15:11.441Z,75.22
2023-07-01T04:17:41.958Z,74.75
2023-07-01T04:20:10.886Z,74.18
2023-07-01T04:22:38.131Z,73.76
2023-07-01T04:25:05.512Z,72.96
2023-07-01T04:27:33.399Z,72.65
2023-07-01T04:30:00.564Z,72.17
2023-07-01T04:32:27.569Z,71.67
2023-07-01T04:34:55.672Z,71.02
2023-07-01T04:37:23.046Z,70.66
2023-07-01T04:39:49.948Z,70.32
2023-07-01T04:42:17.040Z,69.63
2023-07-01T04:44:44.597Z,69.41
2023-07-01T04:47:12.700Z,68.72
2023-07-01T04:49:39.662Z,68.62
2023-07-01T04:52:07.058Z,67.95
2023-07-01T04:54:34.102Z,67.57
2023-07-01T04:57:01.177Z,67.02
2023-07-01T04:59:28.240Z,66.86
2023-07-01T05:01:55.294Z,66.28
2023-07-01T05:04:23.751Z,65.92
2023-07-01T05:06:50.759Z,65.16
2023-07-01T05:09:17.791Z,65.07
2023-07-01T05:11:45.636Z,64.66
2023-07-01T05:14:12.607Z,64.11
2023-07-01T05:16:40.056Z,63.83
2023-07-01T05:19:07.280Z,63.37
2023-07-01T05:21:35.028Z,62.98
2023-07-01T05:24:02.141Z,62.68
2023-07-01T05:26:29.127Z,62.38
2023-07-01T05:28:58.399Z,62.16
2023-07-01T05:31:25.477Z,61.97
2023-07-01T05:33:52.510Z,61.71
2023-07-01T05:36:19.604Z,61.76
2023-07-01T05:38:46.923Z,61.94
2023-07-01T05:41:15.135Z,61.74
2023-07-01T05:43:42.145Z,61.83
2023-07-01T05:46:09.209Z,61.85
2023-07-01T05:48:36.081Z,61.91
2023-07-01T05:51:03.091Z,61.91
2023-07-01T05:53:29.998Z,62.03
2023-07-01T05:55:57.074Z,61.87
2023-07-01T05:58:24.014Z,61.85
2023-07-01T06:00:51.451Z,61.76
2023-07-01T06:03:18.462Z,62.01
2023-07-01T06:05:45.428Z,61.86
2023-07-01T06:08:12.522Z,61.87
2023-07-01T06:10:39.460Z,61.79
2023-07-01T06:13:06.499Z,61.90
2023-07-01T06:15:33.397Z,61.83
2023-07-01T06:18:00.647Z,61.79
2023-07-01T06:20:27.600Z,61.73
2023-07-01T06:22:54.557Z,61.53
2023-07-01T06:25:21.433Z,61.45
2023-07-01T06:27:48.375Z,61.58
2023-07-01T06:30:16.636Z,61.35
2023-07-01T06:32:43.915Z,61.45
2023-07-01T06:35:10.938Z,61.10
2023-07-01T06:37:37.872Z,61.11
2023-07-01T06:40:05.736Z,60.97
2023-07-01T06:42:32.791Z,60.66
2023-07-01T06:44:59.710Z,60.81
2023-07-01T06:47:26.766Z,60.35
2023-07-01T06:49:53.806Z,60.44
2023-07-01T06:52:20.740Z,60.10
2023-07-01T06:54:48.847Z,60.15
2023-07-01T06:57:16.217Z,60.13
2023-07-01T06:59:43.300Z,59.67
2023-07-01T07:02:10.344Z,59.47
2023-07-01T07:04:38.652Z,59.32
2023-07-01T07:07:05.998Z,59.07
2023-07-01T07:09:33.346Z,59.31
2023-07-01T07:12:00.253Z,59.14
2023-07-01T07:14:27.104Z,58.79
2023-07-01T07:16:54.287Z,58.48
2023-07-01T07:19:21.216Z,58.60
2023-07-01T07:21:48.248Z,58.40
2023-07-01T07:24:15.506Z,58.31
2023-07-01T07:26:43.617Z,57.89
2023-07-01T07:29:11.272Z,57.88
2023-07-01T07:31:38.246Z,57.78
2023-07-01T07:34:05.435Z,57.32
2023-07-01T07:36:32.397Z,57.25
2023-07-01T07:38:59.359Z,57.15
2023-07-01T07:41:26.354Z,57.13
2023-07-01T07:43:53.371Z,56.81
2023-07-01T07:46:20.274Z,56.68
2023-07-01T07:48:47.289Z,56.48
2023-07-01T07:51:14.183Z,56.13
2023-07-01T07:53:41.728Z,56.37
2023-07-01T07:56:08.760Z,56.08
2023-07-01T07:58:35.785Z,55.90
2023-07-01T08:01:03.229Z,55.74
2023-07-01T08:03:30.292Z,55.60
2023-07-01T08:05:57.374Z,55.45
2023-07-01T08:08:24.455Z,55.35
2023-07-01T08:10:51.737Z,55.26
2023-07-01T08:13:18.822Z,54.91
2023-07-01T08:15:46.445Z,54.88
2023-07-01T08:18:13.402Z,54.59
2023-07-01T08:20:40.345Z,54.38
2023-07-01T08:23:07.307Z,54.42
2023-07-01T08:25:34.285Z,54.17
2023-07-01T08:28:01.287Z,54.07
2023-07-01T08:30:28.402Z,53.94
2023-07-01T08:33:36.323Z,53.78
2023-07-01T08:36:04.021Z,53.61
2023-07-01T08:38:30.923Z,53.35
2023-07-01T08:41:04.076Z,53.26
2023-07-01T08:43:31.652Z,53.20
2023-07-01T08:46:04.442Z,52.96
2023-07-01T08:48:34.039Z,52.69
2023-07-01T08:51:29.431Z,52.51
2023-07-01T08:53:58.520Z,52.33
2023-07-01T08:56:25.483Z,52.14
2023-07-01T08:58:52.591Z,51.91
2023-07-01T09:01:19.974Z,51.81
2023-07-01T09:03:48.378Z,52.00
2023-07-01T09:06:15.576Z,51.65
2023-07-01T09:08:42.670Z,51.47
2023-07-01T09:11:18.374Z,51.45
2023-07-01T09:13:45.397Z,51.23
2023-07-01T09:16:12.643Z,51.03
2023-07-01T09:18:44.862Z,50.73
2023-07-01T09:21:20.838Z,50.56
2023-07-01T09:23:48.456Z,50.51
2023-07-01T09:26:18.778Z,50.37
2023-07-01T09:28:48.594Z,50.46
2023-07-01T09:31:17.058Z,50.20
2023-07-01T09:34:06.762Z,50.11
2023-07-01T09:36:33.840Z,49.99
2023-07-01T09:39:02.356Z,49.88
2023-07-01T09:41:30.191Z,49.77
2023-07-01T09:43:59.062Z,49.58
2023-07-01T09:46:41.604Z,49.39
2023-07-01T09:49:08.858Z,49.35
2023-07-01T09:51:50.228Z,49.10
2023-07-01T09:54:26.722Z,49.03
2023-07-01T09:56:55.459Z,49.06
2023-07-01T09:59:22.484Z,48.95
2023-07-01T10:01:52.098Z,48.85
2023-07-01T10:04:23.012Z,48.81
2023-07-01T10:06:50.358Z,48.67
2023-07-01T10:09:17.249Z,48.48
2023-07-01T10:11:44.505Z,48.40
2023-07-01T10:14:11.672Z,48.22
2023-07-01T10:16:48.435Z,48.21
2023-07-01T10:19:35.984Z,48.09
2023-07-01T10:22:28.149Z,48.08
2023-07-01T10:25:04.818Z,48.00
2023-07-01T10:28:11.699Z,47.76
2023-07-01T10:31:14.150Z,47.70
2023-07-01T10:33:49.414Z,47.54
2023-07-01T10:36:18.761Z,47.49
2023-07-01T10:38:46.009Z,47.47
2023-07-01T10:41:12.886Z,47.24
2023-07-01T10:43:40.469Z,47.22
2023-07-01T10:46:10.004Z,47.11
2023-07-01T10:48:38.710Z,47.21
2023-07-01T10:51:07.320Z,47.16
2023-07-01T10:54:04.740Z,46.63
2023-07-01T10:56:33.994Z,46.85
2023-07-01T10:59:24.518Z,46.74
2023-07-01T11:02:01.604Z,46.43
2023-07-01T11:05:09.823Z,46.42
2023-07-01T11:07:42.957Z,46.51
2023-07-01T11:10:10.547Z,46.40
2023-07-01T11:12:37.514Z,46.29
2023-07-01T11:15:04.714Z,46.26
2023-07-01T11:17:31.593Z,46.01
2023-07-01T11:19:59.483Z,46.17
2023-07-01T11:22:26.282Z,45.97
2023-07-01T11:24:53.172Z,46.05
2023-07-01T11:27:22.494Z,45.83
2023-07-01T11:29:49.819Z,45.67
2023-07-01T11:32:18.407Z,45.97
2023-07-01T11:34:53.134Z,45.55
2023-07-01T11:37:25.819Z,45.71
2023-07-01T11:39:54.412Z,45.80
2023-07-01T11:42:21.573Z,45.57
2023-07-01T11:44:48.623Z,45.35
2023-07-01T11:47:16.326Z,45.66
2023-07-01T11:49:43.683Z,45.57
2023-07-01T11:52:10.562Z,45.36
2023-07-01T11:54:48.000Z,45.37
2023-07-01T11:57:21.732Z,45.35
2023-07-01T11:59:59.419Z,44.96
2023-07-01T12:02:28.336Z,45.05
2023-07-01T12:04:55.376Z,44.83
2023-07-01T12:07:22.296Z,44.72
2023-07-01T12:09:49.273Z,44.95
2023-07-01T12:12:37.617Z,44.59
2023-07-01T12:15:12.813Z,44.89
2023-07-01T12:17:39.824Z,44.36
2023-07-01T12:20:10.529Z,44.56
2023-07-01T12:22:38.785Z,44.34
2023-07-01T12:25:06.388Z,44.72
2023-07-01T12:27:34.426Z,44.46
2023-07-01T12:30:01.243Z,44.31
2023-07-01T12:32:28.153Z,44.18
2023-07-01T12:34:56.902Z,44.27
2023-07-01T12:37:24.245Z,43.97
2023-07-01T12:39:54.973Z,43.96
2023-07-01T12:42:22.814Z,44.01
2023-07-01T12:44:49.691Z,44.06
2023-07-01T12:47:16.578Z,43.92
2023-07-01T12:49:43.394Z,43.65
2023-07-01T12:52:10.442Z,43.27
2023-07-01T12:54:37.377Z,43.26
2023-07-01T12:57:04.842Z,43.51
2023-07-01T12:59:31.804Z,42.96
2023-07-01T13:01:58.646Z,42.92
2023-07-01T13:04:27.043Z,43.14
2023-07-01T13:06:54.094Z,42.88
2023-07-01T13:09:36.115Z,42.76
2023-07-01T13:12:04.285Z,42.67
2023-07-01T13:14:31.923Z,42.24
2023-07-01T13:16:58.778Z,42.10
2023-07-01T13:19:25.644Z,42.19
2023-07-01T13:21:52.862Z,42.17
2023-07-01T13:24:19.705Z,41.88
2023-07-01T13:26:48.246Z,41.96
2023-07-01T13:29:20.125Z,41.99
2023-07-01T13:31:48.627Z,41.90
2023-07-01T13:34:17.889Z,41.56
2023-07-01T13:36:45.690Z,41.50
2023-07-01T13:39:17.784Z,41.69
2023-07-01T13:41:44.581Z,41.67
2023-07-01T13:44:23.636Z,41.44
2023-07-01T13:46:51.948Z,41.73
2023-07-01T13:49:26.845Z,41.25
2023-07-01T13:51:54.981Z,41.45
2023-07-01T13:54:24.579Z,41.33
2023-07-01T13:56:52.828Z,41.12
2023-07-01T13:59:21.119Z,41.35
2023-07-01T14:02:03.343Z,40.92
2023-07-01T14:04:33.087Z,41.25
2023-07-01T14:07:01.226Z,41.04
2023-07-01T14:09:30.097Z,40.98
2023-07-01T14:11:57.277Z,41.20
2023-07-01T14:14:32.095Z,41.10
2023-07-01T14:16:59.630Z,40.99
2023-07-01T14:19:27.964Z,40.84
2023-07-01T14:21:56.683Z,40.65
2023-07-01T14:24:29.367Z,40.80
2023-07-01T14:26:58.864Z,40.97
2023-07-01T14:29:26.512Z,40.60
2023-07-01T14:31:56.018Z,40.92
2023-07-01T14:34:33.321Z,40.57
2023-07-01T14:37:01.041Z,40.51
2023-07-01T14:39:39.566Z,40.76
2023-07-01T14:42:06.876Z,40.35
2023-07-01T14:44:33.994Z,40.63
2023-07-01T14:47:01.241Z,40.55
2023-07-01T14:49:28.012Z,40.33
2023-07-01T14:51:54.854Z,40.47
2023-07-01T14:54:21.794Z,40.33
2023-07-01T14:56:52.205Z,40.39
2023-07-01T14:59:19.217Z,40.41
2023-07-01T15:01:46.197Z,40.67
2023-07-01T15:04:13.997Z,40.51
2023-07-01T15:06:40.950Z,40.68
2023-07-01T15:09:09.799Z,40.76
2023-07-01T15:11:38.531Z,40.44
2023-07-01T15:14:05.276Z,40.62
2023-07-01T15:16:32.271Z,40.54
2023-07-01T15:18:59.164Z,40.69
2023-07-01T15:21:26.096Z,40.58
2023-07-01T15:23:52.921Z,40.45
2023-07-01T15:26:19.760Z,40.55
2023-07-01T15:28:46.590Z,40.67
2023-07-01T15:31:13.524Z,40.47
2023-07-01T15:33:40.365Z,40.61
2023-07-01T15:36:07.330Z,40.41
2023-07-01T15:38:35.086Z,40.71
2023-07-01T15:41:02.779Z,40.74
2023-07-01T15:43:29.769Z,40.84
2023-07-01T15:45:56.625Z,40.97
2023-07-01T15:48:25.573Z,40.82
2023-07-01T15:50:53.153Z,40.93
2023-07-01T15:53:21.325Z,41.25
2023-07-01T15:55:50.098Z,41.06
2023-07-01T15:58:19.437Z,41.09
2023-07-01T16:00:46.718Z,41.34
2023-07-01T16:03:13.824Z,41.20
2023-07-01T16:05:40.594Z,41.46
2023-07-01T16:08:12.886Z,41.53
2023-07-01T16:10:39.909Z,41.67
2023-07-01T16:13:07.449Z,41.71
2023-07-01T16:16:01.261Z,41.54
2023-07-01T16:18:46.821Z,41.74
2023-07-01T16:21:14.104Z,42.04
2023-07-01T16:23:51.390Z,42.14
2023-07-01T16:26:29.452Z,42.29
2023-07-01T16:28:56.747Z,42.17
2023-07-01T16:31:28.874Z,42.26
2023-07-01T16:33:57.196Z,42.55
2023-07-01T16:36:26.906Z,42.36
2023-07-01T16:39:00.662Z,42.82
2023-07-01T16:41:30.231Z,42.54
2023-07-01T16:43:57.133Z,42.80
2023-07-01T16:46:35.334Z,42.85
2023-07-01T16:49:05.416Z,43.21
2023-07-01T16:51:32.725Z,43.23
2023-07-01T16:54:40.720Z,43.11
2023-07-01T16:57:11.663Z,43.16
2023-07-01T16:59:47.710Z,43.38
2023-07-01T17:02:48.519Z,43.75
2023-07-01T17:05:15.511Z,43.53
2023-07-01T17:07:43.121Z,43.87
2023-07-01T17:10:35.799Z,43.96
2023-07-01T17:13:02.857Z,43.98
2023-07-01T17:15:33.091Z,44.07
2023-07-01T17:18:00.328Z,44.45
2023-07-01T17:20:27.166Z,44.35
2023-07-01T17:22:54.182Z,44.60
2023-07-01T17:25:21.435Z,44.82
2023-07-01T17:27:48.362Z,44.75
2023-07-01T17:30:15.313Z,44.87
2023-07-01T17:32:42.230Z,45.19
2023-07-01T17:35:17.789Z,45.32
2023-07-01T17:37:48.493Z,45.59
2023-07-01T17:40:16.559Z,45.48
2023-07-01T17:42:43.486Z,45.63
2023-07-01T17:45:10.940Z,45.98
2023-07-01T17:47:37.743Z,45.99
2023-07-01T17:50:19.921Z,46.30
2023-07-01T17:52:49.484Z,46.45
2023-07-01T17:55:16.615Z,46.58
2023-07-01T17:57:55.299Z,46.57
2023-07-01T18:00:23.921Z,46.93
2023-07-01T18:02:50.862Z,47.16
2023-07-01T18:05:18.169Z,47.19
2023-07-01T18:07:45.131Z,47.36
2023-07-01T18:10:12.431Z,47.52
2023-07-01T18:12:39.973Z,47.72
2023-07-01T18:17:38.474Z,48.17
2023-07-01T18:20:06.177Z,48.20
2023-07-01T18:22:33.162Z,48.46
2023-07-01T18:24:59.926Z,48.52
2023-07-01T18:27:26.840Z,48.66
2023-07-01T18:29:53.809Z,49.00
2023-07-01T18:32:20.786Z,49.18
2023-07-01T18:34:47.796Z,49.24
2023-07-01T18:37:14.642Z,49.37
2023-07-01T18:39:41.733Z,49.58
2023-07-01T18:42:10.331Z,49.72
2023-07-01T18:44:38.317Z,49.92
2023-07-01T18:47:05.787Z,50.05
2023-07-01T18:49:32.926Z,50.26
2023-07-01T18:52:03.112Z,50.41
2023-07-01T18:54:31.207Z,50.58
2023-07-01T18:56:58.144Z,50.80
2023-07-01T18:59:25.058Z,51.01
2023-07-01T19:01:51.928Z,51.25
2023-07-01T19:04:18.928Z,51.57
2023-07-01T19:06:45.921Z,51.86
2023-07-01T19:09:12.692Z,52.16
2023-07-01T19:11:39.909Z,52.30
2023-07-01T19:14:06.599Z,52.69
2023-07-01T19:16:33.636Z,52.88
2023-07-01T19:19:00.471Z,53.29
2023-07-01T19:21:27.331Z,53.70
2023-07-01T19:23:54.281Z,53.95
2023-07-01T19:26:21.293Z,54.18
2023-07-01T19:28:48.094Z,54.71
2023-07-01T19:31:16.800Z,55.09
2023-07-01T19:33:43.588Z,55.31
2023-07-01T19:36:10.446Z,55.72
2023-07-01T19:38:37.386Z,56.07
2023-07-01T19:41:04.431Z,56.30
2023-07-01T19:43:31.740Z,56.74
2023-07-01T19:45:58.679Z,57.00
2023-07-01T19:48:25.571Z,57.42
2023-07-01T19:50:52.476Z,57.80
2023-07-01T19:53:19.359Z,58.05
2023-07-01T19:55:47.021Z,58.46
2023-07-01T19:58:16.145Z,58.75
2023-07-01T20:00:43.186Z,58.94
2023-07-01T20:03:10.234Z,59.25
2023-07-01T20:05:43.253Z,59.55
2023-07-01T20:08:11.021Z,59.75
2023-07-01T20:10:38.498Z,60.11
2023-07-01T20:13:06.249Z,60.49
2023-07-01T20:15:34.595Z,60.62
2023-07-01T20:18:02.109Z,60.96
2023-07-01T20:20:29.210Z,61.25
2023-07-01T20:22:56.395Z,61.72
2023-07-01T20:25:23.553Z,61.77
2023-07-01T20:27:51.592Z,62.30
2023-07-01T20:30:19.719Z,62.46
2023-07-01T20:32:49.783Z,62.72
2023-07-01T20:35:16.666Z,62.99
2023-07-01T20:37:44.153Z,63.19
2023-07-01T20:40:11.845Z,63.66
2023-07-01T20:42:39.386Z,63.63
2023-07-01T20:45:07.066Z,63.99
2023-07-01T20:47:33.960Z,64.13
2023-07-01T20:50:01.395Z,64.49
2023-07-01T20:52:30.873Z,64.62
2023-07-01T20:54:58.004Z,64.64
2023-07-01T20:57:25.445Z,65.00
2023-07-01T20:59:52.270Z,65.19
2023-07-01T21:02:19.155Z,65.45
2023-07-01T21:04:47.511Z,65.41
2023-07-01T21:07:14.841Z,65.63
2023-07-01T21:09:41.704Z,65.91
2023-07-01T21:12:11.179Z,66.17
2023-07-01T21:14:39.643Z,66.35
2023-07-01T21:17:07.327Z,66.36
2023-07-01T21:19:37.637Z,66.47
2023-07-01T21:22:05.019Z,66.67
2023-07-01T21:24:31.803Z,66.79
2023-07-01T21:27:00.190Z,67.08
2023-07-01T21:29:27.457Z,67.09
2023-07-01T21:31:55.515Z,67.32
2023-07-01T21:34:22.757Z,67.44
2023-07-01T21:36:55.268Z,67.50
2023-07-01T21:39:25.738Z,67.92
2023-07-01T21:41:52.727Z,67.85
2023-07-01T21:44:19.662Z,67.77
2023-07-01T21:46:47.172Z,68.00
2023-07-01T21:49:14.615Z,68.15
2023-07-01T21:51:48.298Z,68.26
2023-07-01T21:54:21.012Z,68.39
2023-07-01T21:56:49.457Z,68.56
2023-07-01T21:59:17.273Z,68.56
2023-07-01T22:01:44.311Z,68.67
2023-07-01T22:04:17.359Z,68.71
2023-07-01T22:06:47.367Z,68.95
2023-07-01T22:09:15.789Z,68.95
2023-07-01T22:11:42.677Z,68.87
2023-07-01T22:14:10.287Z,69.12
2023-07-01T22:16:37.335Z,69.14
2023-07-01T22:19:04.809Z,69.27
2023-07-01T22:21:32.214Z,69.34
2023-07-01T22:24:05.571Z,69.52
2023-07-01T22:26:33.155Z,69.44
2023-07-01T22:29:01.389Z,69.70
2023-07-01T22:31:29.403Z,69.64
2023-07-01T22:33:58.120Z,69.76
2023-07-01T22:36:26.869Z,69.78
2023-07-01T22:38:56.786Z,69.84
2023-07-01T22:41:24.587Z,69.98
2023-07-01T22:43:52.385Z,69.95
2023-07-01T22:46:19.479Z,70.15
2023-07-01T22:48:46.393Z,70.05
2023-07-01T22:51:13.529Z,70.03
2023-07-01T22:53:40.551Z,70.11
2023-07-01T22:56:07.473Z,70.26
2023-07-01T22:58:34.472Z,70.29
2023-07-01T23:01:01.353Z,70.33
2023-07-01T23:03:28.425Z,70.14
2023-07-01T23:05:55.464Z,70.20
2023-07-01T23:08:22.360Z,70.07
2023-07-01T23:10:49.646Z,70.11
2023-07-01T23:13:16.675Z,70.35
2023-07-01T23:15:43.655Z,70.31
2023-07-01T23:18:10.838Z,70.22
2023-07-01T23:20:40.140Z,70.25
2023-07-01T23:23:08.083Z,70.16
2023-07-01T23:25:35.005Z,70.17
2023-07-01T23:28:11.273Z,70.17
2023-07-01T23:30:39.514Z,69.98
2023-07-01T23:33:07.603Z,70.11
2023-07-01T23:35:34.839Z,70.07
2023-07-01T23:38:01.770Z,70.16
2023-07-01T23:40:28.978Z,69.98
2023-07-01T23:42:55.979Z,70.11
2023-07-01T23:45:22.951Z,69.87
2023-07-01T23:47:49.988Z,70.07
2023-07-01T23:50:18.451Z,69.94
2023-07-01T23:52:45.735Z,70.08
2023-07-01T23:55:12.673Z,69.79
2023-07-01T23:57:39.751Z,69.93
